createdAt,value
2018-08-06T00:01:53.006Z,97294.25
2018-08-06T00:04:20.161Z,97293.78
2018-08-06T00:06:47.308Z,97291.44
2018-08-06T00:09:14.584Z,97284.08
2018-08-06T00:11:41.743Z,97286.10
2018-08-06T00:14:08.920Z,97288.39
2018-08-06T00:16:36.124Z,97277.81
2018-08-06T00:19:03.323Z,97277.17
2018-08-06T00:21:30.419Z,97273.13
2018-08-06T00:23:57.592Z,97273.00
2018-08-06T00:26:24.795Z,97275.76
2018-08-06T00:28:52.113Z,97274.64
2018-08-06T00:31:19.246Z,97273.58
2018-08-06T00:33:46.419Z,97277.03
2018-08-06T00:36:13.561Z,97272.28
2018-08-06T00:38:40.664Z,97282.44
2018-08-06T00:41:07.809Z,97275.39
2018-08-06T00:43:34.981Z,97274.57
2018-08-06T00:46:02.169Z,97270.18
2018-08-06T00:48:29.356Z,97271.02
2018-08-06T00:50:56.489Z,97266.23
2018-08-06T00:55:57.797Z,97257.17
2018-08-06T00:58:24.969Z,97254.30
2018-08-06T01:00:52.141Z,97253.25
2018-08-06T01:03:19.352Z,97253.77
2018-08-06T01:05:46.586Z,97251.00
2018-08-06T01:08:13.716Z,97255.43
2018-08-06T01:10:40.966Z,97253.77
2018-08-06T01:13:08.100Z,97253.23
2018-08-06T01:15:35.360Z,97257.70
2018-08-06T01:18:02.531Z,97260.29
2018-08-06T01:20:29.705Z,97259.05
2018-08-06T01:22:56.945Z,97257.20
2018-08-06T01:25:24.109Z,97251.84
2018-08-06T01:27:51.364Z,97255.49
2018-08-06T01:30:18.583Z,97255.52
2018-08-06T01:32:45.759Z,97249.71
2018-08-06T01:35:12.943Z,97250.23
2018-08-06T01:37:40.081Z,97255.11
2018-08-06T01:40:10.522Z,97244.29
2018-08-06T01:42:37.655Z,97251.92
2018-08-06T01:45:05.321Z,97249.23
2018-08-06T01:47:32.461Z,97250.75
2018-08-06T01:49:59.644Z,97246.62
2018-08-06T01:52:26.799Z,97247.72
2018-08-06T01:54:54.001Z,97244.98
2018-08-06T01:57:21.145Z,97241.03
2018-08-06T01:59:48.299Z,97247.53
2018-08-06T02:02:15.485Z,97247.66
2018-08-06T02:04:42.667Z,97237.91
2018-08-06T02:07:09.861Z,97244.72
2018-08-06T02:09:37.148Z,97241.02
2018-08-06T02:12:04.669Z,97243.02
2018-08-06T02:14:31.795Z,97243.39
2018-08-06T02:16:58.960Z,97232.36
2018-08-06T02:19:26.156Z,97234.30
2018-08-06T02:21:53.356Z,97234.64
2018-08-06T02:24:20.620Z,97231.25
2018-08-06T02:26:47.908Z,97232.94
2018-08-06T02:29:15.046Z,97234.38
2018-08-06T02:31:42.232Z,97238.92
2018-08-06T02:34:09.521Z,97235.49
2018-08-06T02:36:36.709Z,97240.34
2018-08-06T02:39:06.529Z,97238.81
2018-08-06T02:41:33.684Z,97234.87
2018-08-06T02:44:00.836Z,97247.88
2018-08-06T02:46:28.004Z,97248.66
2018-08-06T02:48:55.109Z,97240.32
2018-08-06T02:51:22.271Z,97243.92
2018-08-06T02:53:49.425Z,97249.09
2018-08-06T02:56:16.680Z,97240.80
2018-08-06T02:58:43.805Z,97237.58
2018-08-06T03:01:10.981Z,97230.64
2018-08-06T03:03:38.217Z,97238.85
2018-08-06T03:06:05.839Z,97239.59
2018-08-06T03:08:33.115Z,97234.13
2018-08-06T03:11:00.246Z,97238.33
2018-08-06T03:13:27.388Z,97240.91
2018-08-06T03:15:54.547Z,97240.38
2018-08-06T03:18:21.684Z,97241.47
2018-08-06T03:20:48.878Z,97241.64
2018-08-06T03:23:15.988Z,97238.60
2018-08-06T03:25:43.132Z,97242.26
2018-08-06T03:28:10.303Z,97240.88
2018-08-06T03:30:37.448Z,97239.75
2018-08-06T03:33:04.880Z,97241.86
2018-08-06T03:35:32.001Z,97247.97
2018-08-06T03:37:59.196Z,97244.72
2018-08-06T03:40:26.361Z,97250.02
2018-08-06T03:42:53.507Z,97247.35
2018-08-06T03:45:20.728Z,97246.14
2018-08-06T03:47:47.860Z,97241.67
2018-08-06T03:50:15.069Z,97246.33
2018-08-06T03:52:42.515Z,97247.04
2018-08-06T03:55:10.406Z,97243.35
2018-08-06T03:57:38.103Z,97245.47
2018-08-06T04:00:07.208Z,97247.90
2018-08-06T04:02:34.405Z,97247.16
2018-08-06T04:05:01.546Z,97248.53
2018-08-06T04:07:28.820Z,97252.78
2018-08-06T04:09:56.003Z,97252.14
2018-08-06T04:12:23.184Z,97250.03
2018-08-06T04:14:50.360Z,97250.45
2018-08-06T04:17:17.492Z,97256.34
2018-08-06T04:19:44.759Z,97254.77
2018-08-06T04:22:11.889Z,97246.35
2018-08-06T04:24:39.036Z,97250.78
2018-08-06T04:27:06.205Z,97253.25
2018-08-06T04:29:33.348Z,97246.25
2018-08-06T04:32:00.574Z,97248.24
2018-08-06T04:34:27.681Z,97243.78
2018-08-06T04:36:54.814Z,97247.63
2018-08-06T04:39:21.962Z,97242.05
2018-08-06T04:41:49.120Z,97242.11
2018-08-06T04:44:16.252Z,97245.33
2018-08-06T04:46:43.421Z,97244.66
2018-08-06T04:49:10.532Z,97249.80
2018-08-06T04:51:37.719Z,97249.66
2018-08-06T04:54:05.776Z,97252.08
2018-08-06T04:56:33.051Z,97259.30
2018-08-06T04:59:00.171Z,97256.63
2018-08-06T05:01:27.347Z,97258.96
2018-08-06T05:03:54.540Z,97257.53
2018-08-06T05:06:21.680Z,97260.20
2018-08-06T05:08:48.889Z,97246.62
2018-08-06T05:11:16.056Z,97254.12
2018-08-06T05:13:43.289Z,97254.72
2018-08-06T05:16:10.420Z,97252.31
2018-08-06T05:18:37.576Z,97258.42
2018-08-06T05:21:04.960Z,97262.52
2018-08-06T05:23:45.324Z,97261.73
2018-08-06T05:26:12.500Z,97259.81
2018-08-06T05:28:39.658Z,97265.11
2018-08-06T05:31:06.834Z,97265.79
2018-08-06T05:33:33.968Z,97271.66
2018-08-06T05:36:01.140Z,97274.25
2018-08-06T05:38:28.281Z,97281.81
2018-08-06T05:40:55.420Z,97280.83
2018-08-06T05:43:22.537Z,97283.30
2018-08-06T05:45:49.724Z,97284.02
2018-08-06T05:48:16.922Z,97288.50
2018-08-06T05:50:44.089Z,97288.17
2018-08-06T05:53:11.252Z,97286.31
2018-08-06T05:55:38.468Z,97286.22
2018-08-06T05:58:05.631Z,97286.25
2018-08-06T06:00:32.840Z,97296.66
2018-08-06T06:03:00.052Z,97287.45
2018-08-06T06:05:27.206Z,97289.20
2018-08-06T06:07:54.367Z,97290.98
2018-08-06T06:10:21.622Z,97296.33
2018-08-06T06:12:48.773Z,97300.20
2018-08-06T06:15:16.532Z,97296.99
2018-08-06T06:17:44.059Z,97294.59
2018-08-06T06:20:11.608Z,97295.08
2018-08-06T06:22:38.767Z,97294.53
2018-08-06T06:25:08.385Z,97295.61
2018-08-06T06:27:36.044Z,97294.88
2018-08-06T06:30:04.665Z,97292.78
2018-08-06T06:32:31.827Z,97282.50
2018-08-06T06:34:58.985Z,97282.77
2018-08-06T06:37:26.142Z,97284.58
2018-08-06T06:39:55.053Z,97285.02
2018-08-06T06:42:22.194Z,97284.47
2018-08-06T06:44:49.397Z,97280.97
2018-08-06T06:47:16.605Z,97277.55
2018-08-06T06:49:43.800Z,97279.11
2018-08-06T06:52:10.976Z,97283.02
2018-08-06T06:54:38.164Z,97284.17
2018-08-06T06:57:05.728Z,97279.94
2018-08-06T06:59:32.919Z,97277.06
2018-08-06T07:02:00.126Z,97281.31
2018-08-06T07:04:27.466Z,97280.73
2018-08-06T07:06:54.604Z,97278.80
2018-08-06T07:09:21.854Z,97279.89
2018-08-06T07:11:49.024Z,97277.80
2018-08-06T07:14:16.190Z,97280.06
2018-08-06T07:16:43.409Z,97274.86
2018-08-06T07:19:10.608Z,97270.88
2018-08-06T07:21:37.787Z,97271.99
2018-08-06T07:24:04.986Z,97267.50
2018-08-06T07:26:32.340Z,97266.31
2018-08-06T07:28:59.484Z,97264.69
2018-08-06T07:31:26.695Z,97263.52
2018-08-06T07:33:53.843Z,97265.73
2018-08-06T07:36:21.009Z,97268.06
2018-08-06T07:51:47.743Z,97266.72
2018-08-06T07:54:14.972Z,97252.52
2018-08-06T07:56:42.128Z,97243.52
2018-08-06T07:59:09.284Z,97241.35
2018-08-06T08:01:36.493Z,97236.13
2018-08-06T08:04:03.668Z,97242.09
2018-08-06T08:06:30.895Z,97233.99
2018-08-06T08:08:57.929Z,97211.43
2018-08-06T08:11:25.123Z,97228.75
2018-08-06T08:13:52.313Z,97230.09
2018-08-06T08:16:19.539Z,97226.57
2018-08-06T08:18:46.791Z,97219.02
2018-08-06T08:21:13.993Z,97217.80
2018-08-06T08:23:41.213Z,97223.27
2018-08-06T08:26:08.432Z,97227.92
2018-08-06T08:28:35.641Z,97216.84
2018-08-06T08:31:02.845Z,97215.72
2018-08-06T08:33:30.013Z,97212.69
2018-08-06T08:35:57.231Z,97205.77
2018-08-06T08:38:24.442Z,97202.34
2018-08-06T08:40:51.631Z,97204.81
2018-08-06T08:43:18.764Z,97216.08
2018-08-06T08:45:45.995Z,97208.39
2018-08-06T08:48:13.200Z,97212.16
2018-08-06T08:50:40.432Z,97207.33
2018-08-06T08:53:07.650Z,97210.80
2018-08-06T08:55:34.873Z,97224.78
2018-08-06T08:58:02.283Z,97206.92
2018-08-06T09:00:29.457Z,97206.32
2018-08-06T09:02:56.716Z,97208.86
2018-08-06T09:05:23.933Z,97203.43
2018-08-06T09:07:51.721Z,97193.94
2018-08-06T09:10:19.628Z,97197.94
2018-08-06T09:12:46.953Z,97194.25
2018-08-06T09:15:16.644Z,97193.53
2018-08-06T09:17:43.921Z,97187.71
2018-08-06T09:20:11.213Z,97185.92
2018-08-06T09:22:39.185Z,97190.51
2018-08-06T09:25:07.401Z,97184.28
2018-08-06T09:27:34.594Z,97175.76
2018-08-06T09:30:01.981Z,97180.18
2018-08-06T09:32:29.186Z,97171.86
2018-08-06T09:34:56.293Z,97174.88
2018-08-06T09:37:23.467Z,97166.49
2018-08-06T09:39:50.676Z,97163.45
2018-08-06T09:42:17.908Z,97153.47
2018-08-06T09:44:45.129Z,97150.55
2018-08-06T09:47:12.312Z,97150.17
2018-08-06T09:49:39.629Z,97149.09
2018-08-06T09:52:06.807Z,97145.98
2018-08-06T09:54:33.994Z,97146.22
2018-08-06T09:57:01.193Z,97140.93
2018-08-06T09:59:28.384Z,97142.08
2018-08-06T10:01:56.737Z,97136.98
2018-08-06T10:04:24.700Z,97132.03
2018-08-06T10:06:51.857Z,97128.87
2018-08-06T10:09:19.185Z,97128.17
2018-08-06T10:11:46.374Z,97130.16
2018-08-06T10:14:13.552Z,97127.95
2018-08-06T10:16:40.767Z,97128.89
2018-08-06T10:19:08.057Z,97118.69
2018-08-06T10:21:35.484Z,97115.69
2018-08-06T10:24:02.692Z,97114.84
2018-08-06T10:26:29.857Z,97114.66
2018-08-06T10:28:57.212Z,97102.50
2018-08-06T10:31:24.500Z,97100.20
2018-08-06T10:33:51.969Z,97102.16
2018-08-06T10:36:19.174Z,97092.20
2018-08-06T10:38:46.377Z,97095.82
2018-08-06T10:41:13.575Z,97089.33
2018-08-06T10:43:40.761Z,97089.50
2018-08-06T10:46:07.957Z,97081.19
2018-08-06T10:48:35.073Z,97081.50
2018-08-06T10:51:02.242Z,97080.25
2018-08-06T10:53:29.393Z,97077.84
2018-08-06T10:55:56.685Z,97077.17
2018-08-06T10:58:23.895Z,97079.20
2018-08-06T11:00:51.069Z,97074.20
2018-08-06T11:03:18.204Z,97072.31
2018-08-06T11:05:45.393Z,97069.48
2018-08-06T11:08:12.569Z,97070.12
2018-08-06T11:10:39.813Z,97065.27
2018-08-06T11:13:07.000Z,97071.53
2018-08-06T11:15:34.153Z,97064.55
2018-08-06T11:18:01.300Z,97068.56
2018-08-06T11:20:28.550Z,97057.25
2018-08-06T11:22:55.717Z,97054.46
2018-08-06T11:25:22.902Z,97041.44
2018-08-06T11:27:50.062Z,97047.77
2018-08-06T11:30:18.842Z,97043.69
2018-08-06T11:32:46.755Z,97042.73
2018-08-06T11:35:14.547Z,97034.83
2018-08-06T11:37:41.961Z,97034.52
2018-08-06T11:40:10.645Z,97033.36
2018-08-06T11:42:38.743Z,97029.92
2018-08-06T11:45:07.245Z,97025.80
2018-08-06T11:47:34.412Z,97026.37
2018-08-06T11:50:01.641Z,97028.75
2018-08-06T11:52:28.768Z,97026.12
2018-08-06T11:54:55.893Z,97024.18
2018-08-06T11:57:23.200Z,97015.53
2018-08-06T11:59:50.332Z,97016.77
2018-08-06T12:02:17.585Z,97014.77
2018-08-06T12:04:44.776Z,97001.70
2018-08-06T12:07:12.044Z,97001.65
2018-08-06T12:09:39.273Z,97002.16
2018-08-06T12:12:06.535Z,96997.32
2018-08-06T12:14:33.715Z,97000.52
2018-08-06T12:17:00.952Z,96994.67
2018-08-06T12:19:28.217Z,96991.05
2018-08-06T12:21:55.732Z,96985.73
2018-08-06T12:24:22.909Z,96986.86
2018-08-06T12:26:50.130Z,96989.70
2018-08-06T12:29:17.344Z,96984.09
2018-08-06T12:31:44.524Z,96981.01
2018-08-06T12:34:11.693Z,96985.12
2018-08-06T12:36:38.980Z,96982.82
2018-08-06T12:39:13.386Z,96978.88
2018-08-06T12:41:40.642Z,96973.88
2018-08-06T12:44:09.773Z,96969.51
2018-08-06T12:46:37.268Z,96965.30
2018-08-06T12:49:04.752Z,96966.22
2018-08-06T12:51:32.041Z,96966.13
2018-08-06T12:53:59.233Z,96965.33
2018-08-06T12:56:26.413Z,96958.70
2018-08-06T12:58:53.605Z,96963.33
2018-08-06T13:01:20.799Z,96950.38
2018-08-06T13:03:48.260Z,96949.86
2018-08-06T13:06:15.575Z,96944.45
2018-08-06T13:08:42.969Z,96945.06
2018-08-06T13:11:10.123Z,96938.34
2018-08-06T13:13:37.336Z,96937.77
2018-08-06T13:16:05.068Z,96931.02
2018-08-06T13:18:32.348Z,96921.95
2018-08-06T13:20:59.595Z,96924.36
2018-08-06T13:23:26.812Z,96920.51
2018-08-06T13:25:54.040Z,96916.71
2018-08-06T13:28:21.272Z,96921.11
2018-08-06T13:30:48.504Z,96917.30
2018-08-06T13:33:15.744Z,96907.75
2018-08-06T13:35:42.979Z,96911.03
2018-08-06T13:38:11.039Z,96905.63
2018-08-06T13:40:38.313Z,96906.64
2018-08-06T13:43:05.625Z,96903.85
2018-08-06T13:45:33.499Z,96897.58
2018-08-06T13:48:00.697Z,96894.96
2018-08-06T13:50:27.955Z,96893.72
2018-08-06T13:52:55.441Z,96888.25
2018-08-06T13:55:22.639Z,96886.73
2018-08-06T13:57:49.912Z,96888.98
2018-08-06T14:00:17.937Z,96869.06
2018-08-06T14:02:45.432Z,96881.07
2018-08-06T14:05:14.076Z,96880.68
2018-08-06T14:07:41.921Z,96882.19
2018-08-06T14:10:09.428Z,96879.73
2018-08-06T14:12:37.439Z,96875.74
2018-08-06T14:15:07.213Z,96876.33
2018-08-06T14:17:34.342Z,96871.45
2018-08-06T14:20:01.924Z,96875.94
2018-08-06T14:22:29.149Z,96869.36
2018-08-06T14:24:56.411Z,96866.03
2018-08-06T14:27:23.604Z,96864.61
2018-08-06T14:29:50.870Z,96860.23
2018-08-06T14:32:18.160Z,96856.69
2018-08-06T14:34:45.543Z,96849.99
2018-08-06T14:37:12.700Z,96856.17
2018-08-06T14:39:39.867Z,96847.06
2018-08-06T14:42:07.071Z,96843.42
2018-08-06T14:44:34.268Z,96842.32
2018-08-06T14:47:01.488Z,96841.42
2018-08-06T14:49:28.721Z,96833.79
2018-08-06T14:51:55.915Z,96830.20
2018-08-06T14:54:23.082Z,96829.04
2018-08-06T14:56:50.300Z,96820.92
2018-08-06T14:59:17.509Z,96814.91
2018-08-06T15:01:44.657Z,96817.48
2018-08-06T15:04:11.821Z,96819.67
2018-08-06T15:06:39.017Z,96815.56
2018-08-06T15:09:08.262Z,96817.68
2018-08-06T15:11:35.469Z,96809.27
2018-08-06T15:14:03.149Z,96808.63
2018-08-06T15:16:30.409Z,96804.40
2018-08-06T15:18:57.621Z,96797.78
2018-08-06T15:21:24.859Z,96789.34
2018-08-06T15:23:52.047Z,96788.98
2018-08-06T15:26:19.223Z,96797.63
2018-08-06T15:28:46.387Z,96793.41
2018-08-06T15:31:13.644Z,96773.20
2018-08-06T15:33:40.882Z,96768.22
2018-08-06T15:36:08.057Z,96769.45
2018-08-06T15:38:35.525Z,96765.11
2018-08-06T15:41:02.741Z,96769.32
2018-08-06T15:43:29.959Z,96758.20
2018-08-06T15:45:57.110Z,96755.25
2018-08-06T15:48:24.357Z,96761.42
2018-08-06T15:50:52.013Z,96762.84
2018-08-06T15:53:19.212Z,96760.98
2018-08-06T15:55:46.400Z,96760.61
2018-08-06T15:58:13.583Z,96757.04
2018-08-06T16:00:40.735Z,96753.86
2018-08-06T16:03:07.910Z,96756.06
2018-08-06T16:05:35.129Z,96749.48
2018-08-06T16:08:02.248Z,96751.80
2018-08-06T16:10:29.468Z,96743.86
2018-08-06T16:12:56.737Z,96748.92
2018-08-06T16:15:24.070Z,96746.96
2018-08-06T16:17:51.305Z,96748.15
2018-08-06T16:20:18.707Z,96743.13
2018-08-06T16:22:45.960Z,96740.92
2018-08-06T16:25:13.619Z,96745.70
2018-08-06T16:27:40.862Z,96750.07
2018-08-06T16:30:11.770Z,96751.58
2018-08-06T16:32:39.071Z,96737.63
2018-08-06T16:35:06.295Z,96732.98
2018-08-06T16:37:33.551Z,96735.55
2018-08-06T16:40:00.713Z,96732.17
2018-08-06T16:42:28.067Z,96730.44
2018-08-06T16:44:55.268Z,96730.59
2018-08-06T16:47:22.461Z,96726.23
2018-08-06T16:49:49.680Z,96728.67
2018-08-06T16:52:16.901Z,96727.88
2018-08-06T16:54:44.051Z,96730.34
2018-08-06T16:57:11.263Z,96730.00
2018-08-06T16:59:38.428Z,96726.78
2018-08-06T17:02:05.656Z,96730.68
2018-08-06T17:04:32.904Z,96732.06
2018-08-06T17:07:00.088Z,96723.70
2018-08-06T17:09:27.284Z,96725.05
2018-08-06T17:11:54.485Z,96726.58
2018-08-06T17:14:21.792Z,96721.87
2018-08-06T17:17:07.218Z,96724.28
2018-08-06T17:19:35.959Z,96722.61
2018-08-06T17:22:03.379Z,96721.41
2018-08-06T17:24:30.707Z,96722.44
2018-08-06T17:27:11.173Z,96720.44
2018-08-06T17:29:39.290Z,96725.96
2018-08-06T17:32:14.795Z,96721.10
2018-08-06T17:34:42.316Z,96725.66
2018-08-06T17:37:13.065Z,96719.34
2018-08-06T17:39:40.471Z,96727.32
2018-08-06T17:42:08.536Z,96725.06
2018-08-06T17:44:35.926Z,96723.71
2018-08-06T17:47:03.189Z,96724.16
2018-08-06T17:49:30.418Z,96733.11
2018-08-06T17:51:57.666Z,96732.45
2018-08-06T17:54:25.050Z,96731.59
2018-08-06T17:56:52.323Z,96726.59
2018-08-06T17:59:19.516Z,96728.34
2018-08-06T18:01:46.736Z,96728.72
2018-08-06T18:04:13.910Z,96731.45
2018-08-06T18:06:41.073Z,96736.23
2018-08-06T18:09:09.892Z,96733.86
2018-08-06T18:11:37.188Z,96737.12
2018-08-06T18:14:04.506Z,96742.38
2018-08-06T18:16:31.986Z,96738.31
2018-08-06T18:18:59.162Z,96740.54
2018-08-06T18:21:26.448Z,96740.98
2018-08-06T18:23:53.633Z,96745.41
2018-08-06T18:26:20.847Z,96748.20
2018-08-06T18:28:47.976Z,96747.05
2018-08-06T18:31:15.225Z,96756.09
2018-08-06T18:33:42.422Z,96759.34
2018-08-06T18:36:09.651Z,96759.29
2018-08-06T18:38:36.828Z,96762.14
2018-08-06T18:41:04.013Z,96761.78
2018-08-06T18:43:31.192Z,96767.38
2018-08-06T18:45:58.352Z,96773.08
2018-08-06T18:48:25.464Z,96771.88
2018-08-06T18:50:52.591Z,96771.39
2018-08-06T18:53:19.745Z,96770.27
2018-08-06T18:55:46.940Z,96781.82
2018-08-06T18:58:14.129Z,96775.73
2018-08-06T19:00:41.341Z,96782.90
2018-08-06T19:03:08.606Z,96783.91
2018-08-06T19:05:35.825Z,96791.30
2018-08-06T19:08:02.976Z,96792.70
2018-08-06T19:10:30.176Z,96793.88
2018-08-06T19:13:03.192Z,96797.58
2018-08-06T19:15:30.450Z,96792.75
2018-08-06T19:18:03.294Z,96800.63
2018-08-06T19:20:30.492Z,96797.61
2018-08-06T19:22:57.803Z,96796.22
2018-08-06T19:25:27.208Z,96799.91
2018-08-06T19:27:54.812Z,96800.20
2018-08-06T19:30:26.604Z,96803.92
2018-08-06T19:32:53.816Z,96802.94
2018-08-06T19:35:21.108Z,96805.58
2018-08-06T19:37:49.800Z,96803.23
2018-08-06T19:40:17.020Z,96801.19
2018-08-06T19:42:49.948Z,96811.48
2018-08-06T19:45:17.128Z,96810.64
2018-08-06T19:47:44.739Z,96811.70
2018-08-06T19:50:17.565Z,96804.62
2018-08-06T19:52:44.896Z,96807.22
2018-08-06T19:55:17.795Z,96808.16
2018-08-06T19:57:45.126Z,96807.05
2018-08-06T20:00:13.140Z,96811.66
2018-08-06T20:02:40.877Z,96803.81
2018-08-06T20:05:08.576Z,96812.67
2018-08-06T20:07:35.870Z,96816.59
2018-08-06T20:10:03.839Z,96812.64
2018-08-06T20:12:31.579Z,96820.00
2018-08-06T20:14:58.752Z,96815.51
2018-08-06T20:17:26.016Z,96819.53
2018-08-06T20:19:53.210Z,96810.72
2018-08-06T20:22:20.393Z,96820.15
2018-08-06T20:24:47.581Z,96831.25
2018-08-06T20:27:14.843Z,96823.73
2018-08-06T20:29:42.028Z,96826.66
2018-08-06T20:32:09.189Z,96829.69
2018-08-06T20:34:36.443Z,96833.73
2018-08-06T20:37:03.673Z,96828.52
2018-08-06T20:39:30.896Z,96824.63
2018-08-06T20:41:58.088Z,96831.61
2018-08-06T20:44:25.288Z,96829.45
2018-08-06T20:46:52.484Z,96822.78
2018-08-06T20:49:19.706Z,96832.24
2018-08-06T20:51:46.900Z,96836.97
2018-08-06T20:54:14.394Z,96829.96
2018-08-06T20:56:41.696Z,96827.11
2018-08-06T20:59:08.836Z,96831.04
2018-08-06T21:01:36.057Z,96827.73
2018-08-06T21:04:03.315Z,96832.43
2018-08-06T21:06:30.553Z,96827.23
2018-08-06T21:08:58.637Z,96829.97
2018-08-06T21:11:25.924Z,96836.22
2018-08-06T21:13:53.246Z,96843.05
2018-08-06T21:16:20.593Z,96835.13
2018-08-06T21:18:48.028Z,96833.02
2018-08-06T21:21:19.999Z,96829.79
2018-08-06T21:23:47.464Z,96833.27
2018-08-06T21:26:14.901Z,96834.58
2018-08-06T21:28:42.072Z,96841.66
2018-08-06T21:31:09.386Z,96832.95
2018-08-06T21:33:36.597Z,96835.08
2018-08-06T21:36:03.828Z,96833.28
2018-08-06T21:38:31.037Z,96838.40
2018-08-06T21:40:58.251Z,96838.45
2018-08-06T21:43:25.461Z,96840.60
2018-08-06T21:45:52.695Z,96838.21
2018-08-06T21:48:19.916Z,96836.38
2018-08-06T21:50:47.360Z,96836.39
2018-08-06T21:53:14.603Z,96841.39
2018-08-06T21:55:44.498Z,96840.22
2018-08-06T21:58:16.411Z,96841.56
2018-08-06T22:00:44.623Z,96846.56
2018-08-06T22:03:18.288Z,96852.54
2018-08-06T22:05:47.178Z,96851.66
2018-08-06T22:21:14.306Z,96851.38
2018-08-06T22:23:41.484Z,96848.77
2018-08-06T22:26:08.633Z,96848.94
2018-08-06T22:28:35.851Z,96848.97
2018-08-06T22:31:03.150Z,96849.58
2018-08-06T22:33:30.440Z,96839.47
2018-08-06T22:35:57.603Z,96844.66
2018-08-06T22:38:24.774Z,96844.26
2018-08-06T22:40:51.968Z,96843.70
2018-08-06T22:43:19.092Z,96847.48
2018-08-06T22:45:46.247Z,96841.95
2018-08-06T22:48:13.454Z,96841.31
2018-08-06T22:50:40.717Z,96836.80
2018-08-06T22:53:07.948Z,96831.77
2018-08-06T22:55:46.704Z,96830.66
2018-08-06T22:58:13.901Z,96834.72
2018-08-06T23:00:41.114Z,96828.97
2018-08-06T23:03:08.311Z,96826.84
2018-08-06T23:05:35.495Z,96828.98
2018-08-06T23:08:02.820Z,96815.64
2018-08-06T23:10:30.005Z,96818.62
2018-08-06T23:12:57.143Z,96818.13
2018-08-06T23:15:24.378Z,96815.44
2018-08-06T23:17:51.544Z,96812.69
2018-08-06T23:20:18.628Z,96813.33
2018-08-06T23:22:45.796Z,96816.97
2018-08-06T23:25:13.032Z,96808.46
2018-08-06T23:27:40.251Z,96805.27
2018-08-06T23:30:10.737Z,96801.28
2018-08-06T23:32:38.431Z,96799.06
2018-08-06T23:35:06.552Z,96798.94
2018-08-06T23:37:33.740Z,96793.91
2018-08-06T23:40:00.909Z,96795.67
2018-08-06T23:45:02.176Z,96793.06
2018-08-06T23:47:29.386Z,96789.14
2018-08-06T23:49:56.557Z,96782.89
2018-08-06T23:52:23.789Z,96788.84
2018-08-06T23:54:50.907Z,96790.25
2018-08-06T23:57:18.134Z,96791.19
2018-08-06T23:59:45.316Z,96788.73
